Time;durP1;ratioP1;P1;durP2;ratioP2;P2;SDS_P1;SDS_P2;PMS_P1;PMS_P2;Temp;Humidity;BMP_temperature;BMP_pressure;BME280_temperature;BME280_humidity;BME280_pressure;Samples;Min_cycle;Max_cycle;Signal;HPM_P1;HPM_P2
2024/02/05 06:01:20;;;;;;;4.05;1.50;;;7.30;85.80;;;;;;4493328;23;20280;-80
2024/02/05 06:03:22;;;;;;;4.03;1.77;;;7.40;85.70;;;;;;4100225;29;20051;-79
2024/02/05 06:05:24;;;;;;;5.05;1.73;;;7.40;85.70;;;;;;4100165;29;20062;-79
2024/02/05 06:07:26;;;;;;;4.25;1.80;;;7.40;85.50;;;;;;4100191;29;20393;-77
2024/02/05 06:09:28;;;;;;;3.72;1.50;;;7.40;85.40;;;;;;4100392;29;20051;-78
2024/02/05 06:11:30;;;;;;;4.30;1.40;;;7.40;85.40;;;;;;4100415;29;20106;-79
2024/02/05 06:13:31;;;;;;;5.78;1.50;;;7.40;85.40;;;;;;4100084;29;20456;-77
2024/02/05 06:15:33;;;;;;;3.90;1.50;;;7.40;85.40;;;;;;4100021;29;20139;-79
2024/02/05 06:17:37;;;;;;;3.47;1.60;;;7.30;85.40;;;;;;4100370;29;20047;-78
2024/02/05 06:19:38;;;;;;;3.92;1.70;;;7.40;85.40;;;;;;4103089;28;20540;-80
2024/02/05 06:21:41;;;;;;;3.70;1.50;;;7.40;85.20;;;;;;4103115;29;20054;-79
2024/02/05 06:23:42;;;;;;;4.55;1.55;;;7.40;85.20;;;;;;4103183;29;20094;-78
2024/02/05 06:25:44;;;;;;;3.72;1.38;;;7.40;85.20;;;;;;4103114;29;20476;-79
2024/02/05 06:27:46;;;;;;;3.08;1.33;;;7.40;85.20;;;;;;4103101;29;20051;-77
2024/02/05 06:29:48;;;;;;;2.90;1.50;;;7.40;85.30;;;;;;4103190;29;20378;-78
2024/02/05 06:31:50;;;;;;;4.60;1.38;;;7.40;85.30;;;;;;4103216;29;20055;-76
2024/02/05 06:33:53;;;;;;;3.40;1.30;;;7.30;85.30;;;;;;4103186;29;20092;-76
2024/02/05 06:35:55;;;;;;;6.10;1.50;;;7.30;85.50;;;;;;4102628;29;20440;-79
2024/02/05 06:37:57;;;;;;;4.47;1.65;;;7.30;85.50;;;;;;4102706;29;20534;-79
2024/02/05 06:39:58;;;;;;;3.60;1.35;;;7.30;85.70;;;;;;4102967;29;20047;-80
2024/02/05 06:42:00;;;;;;;3.58;1.55;;;7.30;85.70;;;;;;4102846;29;20098;-79
2024/02/05 06:44:02;;;;;;;3.53;1.60;;;7.30;85.70;;;;;;4102816;29;20110;-80
2024/02/05 06:46:04;;;;;;;4.07;1.50;;;7.30;85.70;;;;;;4102753;29;20106;-78
2024/02/05 06:48:07;;;;;;;3.80;1.40;;;7.30;85.70;;;;;;4103003;29;20460;-79
2024/02/05 06:50:11;;;;;;;6.10;1.90;;;7.30;85.70;;;;;;4102815;29;20113;-79
2024/02/05 06:52:13;;;;;;;5.22;2.08;;;7.30;85.70;;;;;;4102607;29;20075;-79
2024/02/05 06:54:14;;;;;;;4.88;1.67;;;7.30;85.50;;;;;;4102779;29;20043;-78
2024/02/05 06:56:16;;;;;;;3.80;1.20;;;7.30;85.50;;;;;;4102844;29;20536;-79
2024/02/05 06:58:19;;;;;;;4.40;1.40;;;7.30;85.50;;;;;;4102893;29;20381;-77
2024/02/05 07:00:21;;;;;;;4.50;1.40;;;7.30;85.40;;;;;;4104468;29;20110;-77
2024/02/05 07:02:23;;;;;;;3.97;1.30;;;7.30;85.30;;;;;;4103470;29;20051;-76
2024/02/05 07:04:25;;;;;;;4.40;1.38;;;7.30;85.20;;;;;;4103840;29;20477;-76
2024/02/05 07:06:28;;;;;;;5.40;1.60;;;7.40;85.30;;;;;;4103257;29;20055;-78
2024/02/05 07:08:30;;;;;;;4.18;1.90;;;7.40;85.20;;;;;;4105061;29;20043;-77
2024/02/05 07:10:31;;;;;;;4.63;1.30;;;7.40;85.00;;;;;;4108356;29;20072;-77
2024/02/05 07:12:33;;;;;;;3.28;1.10;;;7.40;85.00;;;;;;4104542;29;20074;-77
2024/02/05 07:14:35;;;;;;;3.22;1.58;;;7.40;85.00;;;;;;4108795;29;20047;-79
2024/02/05 07:16:37;;;;;;;4.15;1.95;;;7.40;84.90;;;;;;4108425;29;20061;-78
2024/02/05 07:18:37;;;;;;;3.00;1.08;;;7.50;84.70;;;;;;4106525;29;20047;-77
2024/02/05 07:20:41;;;;;;;3.42;1.23;;;7.40;84.40;;;;;;4106080;29;20105;-78
2024/02/05 07:22:44;;;;;;;2.40;1.05;;;7.40;84.50;;;;;;4104591;29;20047;-79
2024/02/05 07:24:45;;;;;;;3.30;1.17;;;7.40;84.50;;;;;;4103646;29;20055;-79
2024/02/05 07:26:47;;;;;;;4.35;1.23;;;7.40;84.30;;;;;;4103333;29;20114;-79
2024/02/05 07:28:49;;;;;;;3.00;1.30;;;7.40;84.50;;;;;;4102501;29;20051;-78
2024/02/05 07:30:51;;;;;;;4.28;1.27;;;7.40;84.30;;;;;;4101856;28;20377;-78
2024/02/05 07:32:53;;;;;;;3.38;1.38;;;7.40;84.10;;;;;;4102152;29;20397;-79
2024/02/05 07:34:55;;;;;;;3.30;1.08;;;7.40;84.20;;;;;;4102467;29;20072;-80
2024/02/05 07:36:56;;;;;;;4.05;1.65;;;7.40;84.00;;;;;;4102314;29;20138;-78
2024/02/05 07:39:00;;;;;;;3.63;1.17;;;7.40;84.20;;;;;;4102415;29;20477;-76
2024/02/05 07:41:01;;;;;;;2.90;1.02;;;7.40;84.00;;;;;;4101907;29;20051;-77
2024/02/05 07:43:03;;;;;;;2.63;1.10;;;7.40;83.90;;;;;;4101918;29;20051;-79
2024/02/05 07:45:06;;;;;;;2.83;0.93;;;7.40;83.90;;;;;;4102141;29;20047;-78
2024/02/05 07:47:08;;;;;;;5.05;1.00;;;7.50;83.80;;;;;;4101849;29;20106;-78
2024/02/05 07:49:09;;;;;;;5.15;1.50;;;7.50;83.70;;;;;;4101806;29;20452;-79
2024/02/05 07:51:11;;;;;;;4.85;1.17;;;7.50;83.50;;;;;;4101670;29;20098;-79
2024/02/05 07:53:13;;;;;;;2.40;1.02;;;7.50;83.50;;;;;;4101824;29;20114;-79
2024/02/05 07:55:17;;;;;;;2.92;1.00;;;7.50;83.30;;;;;;4101857;29;20055;-78
2024/02/05 07:57:19;;;;;;;2.60;0.98;;;7.50;83.40;;;;;;4101749;29;20063;-79
2024/02/05 07:59:20;;;;;;;2.95;1.27;;;7.50;83.40;;;;;;4101564;29;20048;-78
2024/02/05 08:01:22;;;;;;;3.05;1.05;;;7.60;83.20;;;;;;4101522;29;20051;-79
2024/02/05 08:03:24;;;;;;;3.53;1.10;;;7.60;83.10;;;;;;4101550;29;20094;-79
2024/02/05 08:05:26;;;;;;;4.13;1.67;;;7.60;83.00;;;;;;4101159;29;20473;-79
2024/02/05 08:07:28;;;;;;;4.05;1.10;;;7.60;82.90;;;;;;4101499;29;20047;-79
2024/02/05 08:09:30;;;;;;;4.22;1.80;;;7.60;82.70;;;;;;4101574;29;20055;-78
2024/02/05 08:11:33;;;;;;;3.35;1.15;;;7.70;83.40;;;;;;4101686;29;20532;-77
2024/02/05 08:13:35;;;;;;;3.30;1.00;;;7.60;82.40;;;;;;4101720;29;20054;-79
2024/02/05 08:15:37;;;;;;;2.92;1.13;;;7.60;82.40;;;;;;4101392;29;20081;-79
2024/02/05 08:17:39;;;;;;;2.58;1.00;;;7.60;82.60;;;;;;4101299;29;20051;-79
2024/02/05 08:19:41;;;;;;;3.53;1.00;;;7.50;82.70;;;;;;4101319;29;20133;-79
2024/02/05 08:21:41;;;;;;;2.22;0.95;;;7.50;82.80;;;;;;4101360;29;20044;-78
2024/02/05 08:23:47;;;;;;;3.20;1.05;;;7.50;82.80;;;;;;4101012;29;20110;-77
2024/02/05 08:25:49;;;;;;;16.73;7.38;;;7.60;82.70;;;;;;4101240;29;20094;-77
2024/02/05 08:27:52;;;;;;;4.18;1.50;;;7.60;82.50;;;;;;4101313;29;20489;-80
2024/02/05 08:29:54;;;;;;;3.58;1.13;;;7.60;82.50;;;;;;4101160;29;20051;-80
2024/02/05 08:31:55;;;;;;;2.95;1.08;;;7.60;82.40;;;;;;4101165;29;20679;-78
2024/02/05 08:33:57;;;;;;;3.35;1.33;;;7.60;82.30;;;;;;4101212;29;20421;-76
2024/02/05 08:35:58;;;;;;;2.95;1.00;;;7.60;82.30;;;;;;4101074;29;20449;-77
2024/02/05 08:38:00;;;;;;;2.58;0.90;;;7.70;82.20;;;;;;4101169;29;20047;-80
2024/02/05 08:40:01;;;;;;;3.35;0.90;;;7.70;82.00;;;;;;4100965;29;20076;-78
2024/02/05 08:42:03;;;;;;;2.63;0.80;;;7.70;81.80;;;;;;4100307;28;20051;-78
2024/02/05 08:44:07;;;;;;;2.83;1.13;;;7.70;82.00;;;;;;4101181;29;20565;-79
2024/02/05 08:46:08;;;;;;;3.10;1.00;;;7.70;82.00;;;;;;4101204;29;20058;-77
2024/02/05 08:48:10;;;;;;;2.65;0.90;;;7.60;81.90;;;;;;4101047;29;20098;-80
2024/02/05 08:50:12;;;;;;;3.40;1.17;;;7.70;81.80;;;;;;4100872;29;20114;-80
2024/02/05 08:52:15;;;;;;;2.90;0.98;;;7.70;81.60;;;;;;4100877;29;20093;-80
2024/02/05 08:54:17;;;;;;;3.22;0.90;;;7.70;81.60;;;;;;4100951;29;20051;-78
2024/02/05 08:56:20;;;;;;;2.55;0.80;;;7.70;81.40;;;;;;4100697;29;20102;-79
2024/02/05 08:58:21;;;;;;;4.35;1.00;;;7.70;81.40;;;;;;4100854;29;20048;-79
2024/02/05 09:00:24;;;;;;;2.42;0.80;;;7.70;81.30;;;;;;4100802;29;20551;-79
2024/02/05 09:02:26;;;;;;;2.53;0.82;;;7.70;81.30;;;;;;4101018;29;20058;-78
2024/02/05 09:04:28;;;;;;;3.55;1.17;;;7.70;81.30;;;;;;4100724;29;20058;-78
2024/02/05 09:06:30;;;;;;;3.63;0.85;;;7.80;81.30;;;;;;4100935;29;20129;-79
2024/02/05 09:08:36;;;;;;;2.92;0.80;;;7.80;81.20;;;;;;4100666;29;20051;-79
2024/02/05 09:10:37;;;;;;;2.35;0.85;;;7.80;80.90;;;;;;4100924;29;20463;-79
2024/02/05 09:12:39;;;;;;;2.70;1.00;;;7.90;80.70;;;;;;4100713;29;20047;-80
2024/02/05 09:14:41;;;;;;;3.67;1.10;;;7.90;80.80;;;;;;4103679;29;20051;-76
2024/02/05 09:16:44;;;;;;;4.38;1.05;;;8.00;80.50;;;;;;4103127;29;20051;-79
2024/02/05 09:18:46;;;;;;;2.65;0.70;;;8.10;80.50;;;;;;4100761;29;20111;-80
2024/02/05 09:20:48;;;;;;;2.80;1.00;;;8.10;80.10;;;;;;4100571;29;20110;-79
2024/02/05 09:22:50;;;;;;;3.30;1.00;;;8.10;80.20;;;;;;4100673;29;20488;-78
2024/02/05 09:24:51;;;;;;;2.60;1.02;;;8.10;80.00;;;;;;4100612;29;20043;-80
2024/02/05 09:26:53;;;;;;;2.90;1.20;;;8.30;79.80;;;;;;4100627;29;20083;-78
2024/02/05 09:28:55;;;;;;;3.25;1.25;;;8.30;79.20;;;;;;4100501;29;20043;-78
2024/02/05 09:30:57;;;;;;;3.63;1.00;;;8.30;79.20;;;;;;4100263;29;20055;-79
2024/02/05 09:33:00;;;;;;;1.63;0.60;;;8.20;79.40;;;;;;4100422;29;20094;-79
2024/02/05 09:35:01;;;;;;;4.20;0.90;;;8.20;79.00;;;;;;4100302;29;20055;-78
2024/02/05 09:37:03;;;;;;;3.47;1.25;;;8.20;79.00;;;;;;4100691;29;20062;-79
2024/02/05 09:39:05;;;;;;;5.18;1.10;;;8.10;78.80;;;;;;4100750;29;20095;-76
2024/02/05 09:41:10;;;;;;;3.28;0.95;;;8.10;78.90;;;;;;4100512;29;20074;-79
2024/02/05 09:43:13;;;;;;;2.50;0.80;;;8.00;79.20;;;;;;4100427;29;20047;-78
2024/02/05 09:45:18;;;;;;;2.67;1.00;;;8.10;79.30;;;;;;4100401;29;20094;-78
2024/02/05 09:47:20;;;;;;;3.30;0.90;;;8.10;79.30;;;;;;4100361;29;20107;-79
2024/02/05 09:49:23;;;;;;;2.60;0.82;;;8.10;79.00;;;;;;4100232;29;20507;-78
2024/02/05 09:51:28;;;;;;;4.88;0.90;;;8.10;78.90;;;;;;4100237;29;20051;-79
2024/02/05 09:53:32;;;;;;;3.05;1.00;;;8.10;78.60;;;;;;4101623;28;20051;-78
2024/02/05 09:55:34;;;;;;;5.32;1.10;;;8.20;78.60;;;;;;4103624;29;20058;-78
2024/02/05 09:57:37;;;;;;;1.98;0.80;;;8.20;78.70;;;;;;4103626;29;20047;-78
2024/02/05 09:59:40;;;;;;;3.45;1.00;;;8.20;78.40;;;;;;4103608;29;20102;-79
2024/02/05 10:01:43;;;;;;;3.00;1.00;;;8.20;78.40;;;;;;4103411;29;20055;-79
2024/02/05 10:03:45;;;;;;;5.30;1.00;;;8.20;78.20;;;;;;4103381;29;20539;-79
2024/02/05 10:05:50;;;;;;;3.30;0.80;;;8.30;78.20;;;;;;4103294;29;20066;-79
2024/02/05 10:07:54;;;;;;;3.70;1.00;;;8.30;78.00;;;;;;4102716;29;20047;-79
2024/02/05 10:09:57;;;;;;;3.72;0.93;;;8.30;77.70;;;;;;4102939;29;20050;-78
2024/02/05 10:12:00;;;;;;;4.43;1.08;;;8.30;77.80;;;;;;4103400;29;20055;-78
2024/02/05 10:14:02;;;;;;;3.05;0.75;;;8.30;78.10;;;;;;4103325;29;20519;-79
2024/02/05 10:16:05;;;;;;;6.03;2.40;;;8.30;78.10;;;;;;4103489;29;20054;-78
2024/02/05 10:18:09;;;;;;;4.60;1.45;;;8.40;78.10;;;;;;4103209;29;20668;-79
2024/02/05 10:20:14;;;;;;;3.78;1.05;;;8.50;77.70;;;;;;4102977;29;20138;-78
2024/02/05 10:22:17;;;;;;;4.93;1.30;;;8.60;77.30;;;;;;4103295;29;20105;-77
2024/02/05 10:24:19;;;;;;;2.15;0.80;;;8.60;77.00;;;;;;4103146;29;20067;-79
2024/02/05 10:26:23;;;;;;;4.00;1.05;;;8.60;76.80;;;;;;4102596;29;20052;-79
2024/02/05 10:28:27;;;;;;;2.63;0.80;;;8.70;76.70;;;;;;4102658;29;20043;-80
2024/02/05 10:30:29;;;;;;;3.33;0.90;;;8.60;76.50;;;;;;4103220;29;20098;-77
2024/02/05 10:32:32;;;;;;;3.78;1.05;;;8.70;77.50;;;;;;4103007;29;20051;-80
2024/02/05 10:34:34;;;;;;;2.83;0.90;;;8.70;76.60;;;;;;4103036;29;20382;-79
2024/02/05 10:36:36;;;;;;;3.28;0.90;;;8.70;76.40;;;;;;4102616;29;20055;-77
2024/02/05 10:38:40;;;;;;;3.25;0.80;;;8.70;76.20;;;;;;4102834;29;20102;-78
2024/02/05 10:40:41;;;;;;;3.10;0.80;;;8.70;76.00;;;;;;4103126;29;20047;-77
2024/02/05 10:42:43;;;;;;;2.83;0.90;;;8.80;76.00;;;;;;4102574;29;20051;-79
2024/02/05 10:44:44;;;;;;;3.20;0.82;;;8.90;75.90;;;;;;4102904;29;20552;-79
2024/02/05 10:46:49;;;;;;;2.78;0.80;;;8.90;75.90;;;;;;4103056;29;20106;-78
2024/02/05 10:48:51;;;;;;;3.15;0.90;;;8.90;76.10;;;;;;4102851;29;20057;-78
2024/02/05 10:50:54;;;;;;;4.03;1.00;;;8.90;75.80;;;;;;4102865;29;20228;-79
2024/02/05 10:52:57;;;;;;;2.08;0.80;;;8.90;75.60;;;;;;4102781;29;20055;-78
2024/02/05 10:55:02;;;;;;;3.72;1.15;;;8.90;75.60;;;;;;4102626;29;20075;-77
2024/02/05 10:57:07;;;;;;;2.80;0.93;;;8.90;75.70;;;;;;4102604;29;20139;-78
2024/02/05 10:59:08;;;;;;;5.32;1.13;;;9.00;75.70;;;;;;4102665;29;20051;-76
2024/02/05 11:01:15;;;;;;;2.53;0.90;;;9.00;75.60;;;;;;4102529;29;20054;-77
2024/02/05 11:03:20;;;;;;;5.72;1.00;;;9.00;75.60;;;;;;4102703;29;20055;-79
2024/02/05 11:05:25;;;;;;;3.47;1.02;;;9.10;75.70;;;;;;4101718;28;20055;-78
2024/02/05 11:07:32;;;;;;;2.85;0.75;;;9.10;75.10;;;;;;4102570;29;20138;-79
2024/02/05 11:09:36;;;;;;;3.08;0.80;;;9.10;75.10;;;;;;4102637;29;20098;-77
2024/02/05 11:11:41;;;;;;;3.20;1.23;;;9.10;74.70;;;;;;4102094;29;20055;-79
2024/02/05 11:13:48;;;;;;;3.37;1.00;;;9.00;74.80;;;;;;4102614;29;20097;-79
2024/02/05 11:15:52;;;;;;;5.72;2.30;;;9.00;74.70;;;;;;4102457;29;20084;-78
2024/02/05 11:17:55;;;;;;;3.15;1.10;;;9.10;75.00;;;;;;4102272;29;20110;-79
2024/02/05 11:19:58;;;;;;;3.38;1.30;;;9.10;74.90;;;;;;4102528;29;20495;-76
2024/02/05 11:22:00;;;;;;;4.30;1.40;;;9.10;74.80;;;;;;4085420;28;20107;-79
2024/02/05 11:24:04;;;;;;;3.45;0.98;;;9.10;74.80;;;;;;4085401;29;20047;-78
2024/02/05 11:26:06;;;;;;;3.35;1.13;;;9.20;74.80;;;;;;4085876;29;20047;-77
2024/02/05 11:28:12;;;;;;;2.47;1.00;;;9.20;74.60;;;;;;4093828;29;20044;-79
2024/02/05 11:30:18;;;;;;;4.90;1.23;;;9.20;74.50;;;;;;4100007;29;20050;-79
2024/02/05 11:32:30;;;;;;;3.60;1.05;;;9.20;74.70;;;;;;4100049;29;20055;-79
2024/02/05 11:34:36;;;;;;;5.95;1.05;;;9.30;74.50;;;;;;4100264;29;20074;-78
2024/02/05 11:36:43;;;;;;;4.88;0.98;;;9.30;74.20;;;;;;4100322;29;20051;-80
2024/02/05 11:38:45;;;;;;;2.35;0.80;;;9.30;73.90;;;;;;4100162;29;20487;-79
2024/02/05 11:40:50;;;;;;;5.65;1.00;;;9.30;73.50;;;;;;4100253;29;20513;-79
2024/02/05 11:43:05;;;;;;;4.35;0.82;;;9.40;73.70;;;;;;4097241;29;20055;-79
2024/02/05 11:45:10;;;;;;;4.27;1.03;;;9.40;73.30;;;;;;4099138;29;20047;-79
2024/02/05 11:47:12;;;;;;;3.80;0.95;;;9.50;73.10;;;;;;4099677;29;20807;-78
2024/02/05 11:49:14;;;;;;;2.70;0.90;;;9.50;72.90;;;;;;4099561;29;20484;-78
2024/02/05 11:51:16;;;;;;;3.42;0.70;;;9.50;72.90;;;;;;4099713;29;20055;-79
2024/02/05 11:53:18;;;;;;;3.65;1.00;;;9.60;72.70;;;;;;4099484;29;20397;-78
2024/02/05 11:55:23;;;;;;;3.45;1.00;;;9.60;72.20;;;;;;4099033;29;20106;-78
2024/02/05 11:57:25;;;;;;;3.75;1.00;;;9.70;72.20;;;;;;4098846;28;20055;-77
2024/02/05 11:59:27;;;;;;;4.00;1.30;;;9.70;71.60;;;;;;4099440;28;20079;-78
2024/02/05 12:01:30;;;;;;;4.05;0.90;;;9.70;72.00;;;;;;4100278;29;20060;-77
2024/02/05 12:03:33;;;;;;;3.20;0.88;;;9.80;72.20;;;;;;4099203;29;20047;-78
2024/02/05 12:05:36;;;;;;;3.85;1.10;;;9.90;71.60;;;;;;4099702;29;20055;-80
2024/02/05 12:07:38;;;;;;;3.53;1.10;;;10.00;71.00;;;;;;4097872;29;20118;-77
2024/02/05 12:09:40;;;;;;;3.80;0.90;;;10.00;70.60;;;;;;4099158;29;20051;-79
2024/02/05 12:11:43;;;;;;;3.67;0.85;;;10.10;70.00;;;;;;4098660;29;20047;-77
2024/02/05 12:13:44;;;;;;;4.00;0.77;;;10.20;69.60;;;;;;4098092;29;20051;-79
2024/02/05 12:15:47;;;;;;;4.63;1.17;;;10.30;69.60;;;;;;4099289;28;20504;-79
2024/02/05 12:17:59;;;;;;;3.60;1.10;;;10.20;69.60;;;;;;4098462;29;20065;-78
2024/02/05 12:20:01;;;;;;;2.95;0.95;;;10.30;69.50;;;;;;4097340;29;20051;-76
2024/02/05 12:22:04;;;;;;;2.55;0.90;;;10.30;69.20;;;;;;4098916;29;20052;-78
2024/02/05 12:24:06;;;;;;;3.00;0.73;;;10.30;68.80;;;;;;4099152;29;20055;-79
2024/02/05 12:26:09;;;;;;;2.38;0.90;;;10.40;68.60;;;;;;4099112;29;20460;-78
2024/02/05 12:28:14;;;;;;;3.53;1.00;;;10.50;68.30;;;;;;4099228;29;20055;-78
2024/02/05 12:30:16;;;;;;;4.57;0.90;;;10.50;68.30;;;;;;4099081;29;20055;-79
2024/02/05 12:32:18;;;;;;;3.65;1.00;;;10.50;68.20;;;;;;4099110;29;20516;-79
2024/02/05 12:34:22;;;;;;;4.85;1.10;;;10.70;67.90;;;;;;4098995;29;20063;-79
2024/02/05 12:36:29;;;;;;;2.85;0.80;;;10.90;67.20;;;;;;4099626;29;20110;-78
2024/02/05 12:38:31;;;;;;;4.25;0.90;;;11.00;66.30;;;;;;4098827;29;20047;-79
2024/02/05 12:40:34;;;;;;;3.72;1.00;;;11.00;65.80;;;;;;4099097;29;20122;-77
2024/02/05 12:42:36;;;;;;;5.57;1.50;;;11.10;65.80;;;;;;4099845;29;20055;-79
2024/02/05 12:44:37;;;;;;;3.03;0.90;;;11.20;65.70;;;;;;4100222;29;20050;-77
2024/02/05 12:46:39;;;;;;;4.00;0.93;;;11.30;65.30;;;;;;4099925;29;20090;-78
2024/02/05 12:48:41;;;;;;;4.65;1.20;;;11.40;65.40;;;;;;4101914;29;20488;-77
2024/02/05 12:50:45;;;;;;;3.67;1.10;;;11.60;64.50;;;;;;4105656;29;20082;-77
2024/02/05 12:52:48;;;;;;;6.55;1.60;;;11.70;63.90;;;;;;4105802;29;20382;-78
2024/02/05 12:54:50;;;;;;;4.65;1.00;;;11.90;64.00;;;;;;4104475;29;20063;-77
2024/02/05 12:56:52;;;;;;;3.45;0.98;;;11.80;62.40;;;;;;4105942;29;20072;-79
2024/02/05 12:58:55;;;;;;;3.25;0.85;;;12.00;63.00;;;;;;4112832;29;20055;-79
2024/02/05 13:00:57;;;;;;;6.85;1.35;;;12.00;62.10;;;;;;4109462;29;20569;-78
2024/02/05 13:03:03;;;;;;;3.22;1.20;;;12.20;61.90;;;;;;4109243;29;20913;-78
2024/02/05 13:05:07;;;;;;;4.32;1.20;;;12.60;61.40;;;;;;4106927;29;20055;-78
2024/02/05 13:07:10;;;;;;;4.07;1.08;;;12.70;60.20;;;;;;4103285;29;20065;-76
2024/02/05 13:09:11;;;;;;;4.32;1.00;;;12.70;60.40;;;;;;4110927;29;20139;-78
2024/02/05 13:11:13;;;;;;;3.58;1.10;;;13.10;59.70;;;;;;4111660;29;20130;-77
2024/02/05 13:13:16;;;;;;;3.58;1.23;;;13.30;58.30;;;;;;4113567;29;20118;-80
2024/02/05 13:15:22;;;;;;;4.88;1.13;;;13.60;57.80;;;;;;4111317;29;20455;-78
2024/02/05 13:17:23;;;;;;;4.60;1.08;;;13.80;56.70;;;;;;4109082;29;20061;-76
2024/02/05 13:19:24;;;;;;;8.35;1.45;;;14.20;56.00;;;;;;4101205;29;20055;-79
2024/02/05 13:21:26;;;;;;;4.97;1.02;;;14.40;56.30;;;;;;4098940;29;20552;-78
2024/02/05 13:23:28;;;;;;;2.83;1.00;;;14.50;54.50;;;;;;4099038;29;20102;-82
2024/02/05 13:25:31;;;;;;;2.88;1.10;;;17.00;51.80;;;;;;4098905;29;20106;-82
2024/02/05 13:27:32;;;;;;;4.50;1.17;;;19.40;45.50;;;;;;4099027;28;20058;-80
2024/02/05 13:29:34;;;;;;;4.10;1.20;;;19.50;43.60;;;;;;4098793;29;20082;-80
2024/02/05 13:31:36;;;;;;;3.15;1.13;;;19.30;43.50;;;;;;4102926;29;20469;-80
2024/02/05 13:33:37;;;;;;;4.10;1.05;;;20.50;42.00;;;;;;4102091;29;20110;-78
2024/02/05 13:35:39;;;;;;;3.88;1.02;;;21.20;39.70;;;;;;4102066;29;21146;-80
2024/02/05 13:37:41;;;;;;;4.55;1.17;;;23.20;37.80;;;;;;4101496;29;20398;-82
2024/02/05 13:39:44;;;;;;;2.65;1.08;;;24.70;33.10;;;;;;4101635;29;20559;-78
2024/02/05 13:41:47;;;;;;;5.05;1.25;;;25.30;33.60;;;;;;4100568;29;20055;-79
2024/02/05 13:43:49;;;;;;;3.00;1.17;;;27.30;29.70;;;;;;4101726;29;20118;-78
2024/02/05 13:45:52;;;;;;;5.32;1.30;;;27.00;29.00;;;;;;4101358;29;20468;-79
2024/02/05 13:47:55;;;;;;;3.65;1.10;;;25.90;29.60;;;;;;4104135;29;20058;-79
2024/02/05 13:49:57;;;;;;;4.40;1.33;;;25.30;30.80;;;;;;4104193;29;20055;-79
2024/02/05 13:51:59;;;;;;;5.13;1.20;;;24.60;32.30;;;;;;4103563;29;20047;-77
2024/02/05 13:54:00;;;;;;;4.00;1.23;;;24.40;31.20;;;;;;4102859;29;20457;-78
2024/02/05 13:56:06;;;;;;;3.35;1.23;;;25.40;30.70;;;;;;4100589;29;20058;-77
2024/02/05 13:58:07;;;;;;;4.40;1.23;;;26.00;30.10;;;;;;4101025;29;20366;-76
2024/02/05 14:00:11;;;;;;;4.47;1.65;;;27.60;28.10;;;;;;4100227;29;20059;-78
2024/02/05 14:02:13;;;;;;;5.03;1.90;;;27.80;27.90;;;;;;4100144;29;20142;-76
2024/02/05 14:04:15;;;;;;;5.15;1.52;;;27.90;27.80;;;;;;4101113;29;20470;-78
2024/02/05 14:06:17;;;;;;;3.53;1.30;;;28.30;27.30;;;;;;4100719;29;20051;-77
2024/02/05 14:08:18;;;;;;;3.17;1.20;;;28.70;26.60;;;;;;4100175;29;20082;-78
2024/02/05 14:10:20;;;;;;;4.60;1.23;;;28.00;26.50;;;;;;4100256;29;20051;-80
2024/02/05 14:12:24;;;;;;;5.65;1.42;;;26.90;27.50;;;;;;4100126;29;20051;-80
2024/02/05 14:14:25;;;;;;;7.10;1.45;;;27.20;27.60;;;;;;4100079;29;20051;-77
2024/02/05 14:16:27;;;;;;;5.35;1.70;;;27.70;27.20;;;;;;4100086;29;20457;-77
2024/02/05 14:18:29;;;;;;;4.75;1.50;;;27.80;26.60;;;;;;4100051;29;20059;-79
2024/02/05 14:20:31;;;;;;;4.63;1.48;;;27.70;26.90;;;;;;4100129;29;20106;-76
2024/02/05 14:22:33;;;;;;;6.65;1.80;;;28.80;25.90;;;;;;4100044;29;20083;-79
2024/02/05 14:24:35;;;;;;;3.03;1.30;;;29.90;24.70;;;;;;4100075;29;20047;-76
2024/02/05 14:26:37;;;;;;;4.30;1.50;;;28.20;25.00;;;;;;4100248;29;20050;-76
2024/02/05 14:28:41;;;;;;;4.72;1.77;;;27.60;26.20;;;;;;4100478;29;20142;-78
2024/02/05 14:30:43;;;;;;;4.55;1.80;;;29.20;25.60;;;;;;4100571;29;20069;-78
2024/02/05 14:32:44;;;;;;;6.10;2.00;;;29.30;24.80;;;;;;4100376;29;20527;-77
2024/02/05 14:34:46;;;;;;;4.82;3.97;;;29.50;24.50;;;;;;4100202;29;20048;-76
2024/02/05 14:36:49;;;;;;;6.53;4.82;;;30.00;24.70;;;;;;4100055;29;20047;-77
2024/02/05 14:38:50;;;;;;;6.45;4.28;;;32.10;23.20;;;;;;4099895;28;20109;-78
2024/02/05 14:40:52;;;;;;;5.13;3.90;;;33.60;22.00;;;;;;4102930;29;20073;-77
2024/02/05 14:42:54;;;;;;;8.25;2.63;;;34.20;21.20;;;;;;4103123;29;20457;-77
2024/02/05 14:44:58;;;;;;;7.05;3.20;;;32.20;21.80;;;;;;4102839;29;20130;-77
2024/02/05 14:47:00;;;;;;;8.77;3.10;;;30.70;23.30;;;;;;4102658;29;20507;-76
2024/02/05 14:49:02;;;;;;;5.55;3.25;;;30.70;23.10;;;;;;4102930;29;20138;-77
2024/02/05 14:51:05;;;;;;;5.97;3.00;;;30.80;23.10;;;;;;4102848;29;20054;-77
2024/02/05 14:53:07;;;;;;;6.50;3.30;;;30.10;23.20;;;;;;4102793;29;20059;-77
2024/02/05 14:55:09;;;;;;;4.43;3.00;;;30.40;23.10;;;;;;4102245;29;20090;-79
2024/02/05 14:57:11;;;;;;;6.13;2.13;;;29.80;22.60;;;;;;4102499;29;20456;-79
2024/02/05 14:59:13;;;;;;;6.32;2.03;;;28.20;24.30;;;;;;4102801;29;20054;-77
2024/02/05 15:01:16;;;;;;;5.68;2.40;;;26.70;25.30;;;;;;4102523;29;20051;-78
2024/02/05 15:03:20;;;;;;;5.53;1.83;;;26.10;26.30;;;;;;4102511;29;20050;-79
2024/02/05 15:05:22;;;;;;;4.32;2.00;;;24.50;28.00;;;;;;4102471;29;20050;-81
2024/02/05 15:07:24;;;;;;;5.07;1.75;;;23.90;29.00;;;;;;4103422;29;20047;-78
2024/02/05 15:09:26;;;;;;;3.88;1.65;;;23.20;30.00;;;;;;4101713;29;20051;-76
2024/02/05 15:11:28;;;;;;;5.32;1.80;;;23.30;30.90;;;;;;4102288;29;20051;-78
2024/02/05 15:13:29;;;;;;;4.95;1.50;;;24.40;29.60;;;;;;4101443;29;20465;-76
2024/02/05 15:15:31;;;;;;;5.95;1.73;;;25.00;28.90;;;;;;4092155;28;20055;-78
2024/02/05 15:17:34;;;;;;;5.25;1.60;;;25.20;28.50;;;;;;4084016;29;20074;-78
2024/02/05 15:19:35;;;;;;;9.27;2.60;;;25.60;28.20;;;;;;4096095;29;20125;-78
2024/02/05 15:21:37;;;;;;;4.63;2.28;;;26.70;27.70;;;;;;4100375;29;20106;-77
2024/02/05 15:23:38;;;;;;;5.80;1.70;;;28.10;26.30;;;;;;4099232;29;20102;-76
2024/02/05 15:25:40;;;;;;;4.60;1.90;;;28.20;25.80;;;;;;4100158;29;20051;-76
2024/02/05 15:27:42;;;;;;;5.15;1.73;;;27.90;25.40;;;;;;4100067;29;20400;-78
2024/02/05 15:29:44;;;;;;;4.88;2.40;;;28.20;25.60;;;;;;4099823;29;20118;-77
2024/02/05 15:31:46;;;;;;;4.00;1.70;;;28.80;24.80;;;;;;4097434;29;20062;-76
2024/02/05 15:33:49;;;;;;;6.38;2.10;;;28.70;24.70;;;;;;4100212;29;20053;-75
2024/02/05 15:35:51;;;;;;;5.43;1.70;;;29.10;24.80;;;;;;4100311;29;20556;-76
2024/02/05 15:37:53;;;;;;;5.15;2.05;;;27.80;24.90;;;;;;4100044;29;20453;-75
2024/02/05 15:39:56;;;;;;;4.28;1.70;;;26.80;26.30;;;;;;4099459;29;20051;-76
2024/02/05 15:41:57;;;;;;;6.43;1.90;;;27.00;26.40;;;;;;4100104;29;20055;-75
2024/02/05 15:43:59;;;;;;;5.93;1.55;;;26.50;26.70;;;;;;4100089;29;20055;-76
2024/02/05 15:46:01;;;;;;;5.85;1.50;;;26.10;27.60;;;;;;4099957;29;20044;-78
2024/02/05 15:48:03;;;;;;;4.13;1.52;;;25.70;28.00;;;;;;4100759;29;20114;-77
2024/02/05 15:50:09;;;;;;;5.95;1.35;;;24.80;28.70;;;;;;4099954;29;20058;-77
2024/02/05 15:52:12;;;;;;;;;;;23.70;29.90;;;;;;4098313;28;20082;-76
2024/02/05 15:54:13;;;;;;;7.25;1.60;;;22.90;30.90;;;;;;4100239;29;20005;-76
2024/02/05 15:56:14;;;;;;;5.38;1.77;;;22.60;32.10;;;;;;4099889;29;20449;-77
2024/02/05 15:58:16;;;;;;;5.18;1.90;;;22.90;32.10;;;;;;4100123;29;20102;-78
2024/02/05 16:00:19;;;;;;;6.88;1.80;;;22.90;31.50;;;;;;4099721;29;20481;-76
2024/02/05 16:02:21;;;;;;;8.77;1.70;;;23.40;31.40;;;;;;4099689;29;20117;-77
2024/02/05 16:04:23;;;;;;;5.90;1.58;;;23.60;30.60;;;;;;4099732;29;20055;-78
2024/02/05 16:06:27;;;;;;;4.47;1.50;;;23.70;31.10;;;;;;4099637;29;20110;-78
2024/02/05 16:08:30;;;;;;;5.88;1.52;;;23.20;31.50;;;;;;4099962;29;20051;-79
2024/02/05 16:10:34;;;;;;;4.38;1.40;;;22.30;33.80;;;;;;4099807;29;20134;-77
2024/02/05 16:12:36;;;;;;;7.63;1.65;;;21.20;34.30;;;;;;4099508;29;20055;-79
2024/02/05 16:14:37;;;;;;;4.40;1.42;;;20.30;36.40;;;;;;4099312;29;20055;-77
2024/02/05 16:16:41;;;;;;;4.40;1.13;;;19.60;37.90;;;;;;4099602;29;20047;-77
2024/02/05 16:18:43;;;;;;;4.20;1.25;;;19.00;38.80;;;;;;4099538;29;20047;-76
2024/02/05 16:20:45;;;;;;;4.28;1.40;;;18.50;40.10;;;;;;4099343;29;20055;-77
2024/02/05 16:22:50;;;;;;;8.15;1.40;;;18.10;41.00;;;;;;4099546;29;20157;-76
2024/02/05 16:24:52;;;;;;;4.65;1.50;;;17.70;41.80;;;;;;4099342;29;20073;-77
2024/02/05 16:26:54;;;;;;;5.78;1.65;;;17.40;42.50;;;;;;4098758;29;20102;-78
2024/02/05 16:28:56;;;;;;;5.80;1.50;;;17.10;43.60;;;;;;4098566;29;20098;-78
2024/02/05 16:30:57;;;;;;;7.15;1.50;;;16.80;43.80;;;;;;4098859;29;20055;-77
2024/02/05 16:33:00;;;;;;;7.20;1.55;;;16.50;44.40;;;;;;4099128;29;20556;-77
2024/02/05 16:35:02;;;;;;;5.60;1.60;;;16.20;45.10;;;;;;4098579;29;20086;-77
2024/02/05 16:37:04;;;;;;;6.32;1.60;;;16.10;45.60;;;;;;4099018;29;20094;-77
2024/02/05 16:39:07;;;;;;;6.45;1.50;;;15.90;46.00;;;;;;4098714;29;20477;-77
2024/02/05 16:41:10;;;;;;;7.97;1.90;;;15.70;46.70;;;;;;4098947;29;20142;-78
2024/02/05 16:43:12;;;;;;;7.07;1.65;;;15.50;46.90;;;;;;4098413;29;20051;-76